createdAt,value
2023-05-07T00:00:31.539Z,87.38
2023-05-07T00:03:35.052Z,86.50
2023-05-07T00:06:40.246Z,86.93
2023-05-07T00:09:43.760Z,87.23
2023-05-07T00:12:47.225Z,87.22
2023-05-07T00:15:51.242Z,87.48
2023-05-07T00:18:55.481Z,87.50
2023-05-07T00:22:00.356Z,87.09
2023-05-07T00:25:04.114Z,87.63
2023-05-07T00:28:08.204Z,87.71
2023-05-07T00:31:12.738Z,87.08
2023-05-07T00:34:16.235Z,86.93
2023-05-07T00:37:21.213Z,87.20
2023-05-07T00:40:28.477Z,86.90
2023-05-07T00:43:33.212Z,86.76
2023-05-07T00:47:07.925Z,86.11
2023-05-07T00:50:13.716Z,86.13
2023-05-07T00:53:19.023Z,86.32
2023-05-07T00:56:23.899Z,86.13
2023-05-07T00:59:27.486Z,85.92
2023-05-07T01:02:31.178Z,85.79
2023-05-07T01:05:35.266Z,86.10
2023-05-07T01:08:41.686Z,85.19
2023-05-07T01:11:46.059Z,85.82
2023-05-07T01:14:50.942Z,86.10
2023-05-07T01:17:54.729Z,86.29
2023-05-07T01:21:06.976Z,86.24
2023-05-07T01:24:12.356Z,86.43
2023-05-07T01:27:15.877Z,85.86
2023-05-07T01:30:23.057Z,85.37
2023-05-07T01:33:28.737Z,84.60
2023-05-07T01:36:34.222Z,85.63
2023-05-07T01:39:42.553Z,85.33
2023-05-07T01:42:46.279Z,86.13
2023-05-07T01:45:50.968Z,86.98
2023-05-07T01:48:55.802Z,86.75
2023-05-07T01:52:00.185Z,86.70
2023-05-07T01:55:06.017Z,87.09
2023-05-07T01:58:09.407Z,86.60
2023-05-07T02:01:12.942Z,86.56
2023-05-07T02:04:17.142Z,86.08
2023-05-07T02:07:21.319Z,86.15
2023-05-07T02:10:26.623Z,85.89
2023-05-07T02:13:32.080Z,85.75
2023-05-07T02:16:35.466Z,86.26
2023-05-07T02:19:40.715Z,86.21
2023-05-07T02:22:44.360Z,86.75
2023-05-07T02:25:49.231Z,86.71
2023-05-07T02:28:53.183Z,86.48
2023-05-07T02:31:56.976Z,86.13
2023-05-07T02:35:00.787Z,85.72
2023-05-07T02:38:06.793Z,86.22
2023-05-07T02:41:13.363Z,86.06
2023-05-07T02:44:16.961Z,86.47
2023-05-07T02:47:22.673Z,85.87
2023-05-07T02:50:26.510Z,86.23
2023-05-07T02:53:30.728Z,85.90
2023-05-07T02:56:38.648Z,86.88
2023-05-07T02:59:42.175Z,86.78
2023-05-07T03:02:46.605Z,86.75
2023-05-07T03:05:51.154Z,86.39
2023-05-07T03:08:54.834Z,86.71
2023-05-07T03:12:02.905Z,86.43
2023-05-07T03:15:08.100Z,86.85
2023-05-07T03:18:11.912Z,86.60
2023-05-07T03:21:16.390Z,86.90
2023-05-07T03:24:19.868Z,86.44
2023-05-07T03:27:24.735Z,86.62
2023-05-07T03:30:30.784Z,86.57
2023-05-07T03:33:35.774Z,86.02
2023-05-07T03:36:42.475Z,86.22
2023-05-07T03:39:48.803Z,86.44
2023-05-07T03:42:54.079Z,86.01
2023-05-07T03:46:01.238Z,86.07
2023-05-07T03:49:06.234Z,85.76
2023-05-07T03:52:10.222Z,85.35
2023-05-07T03:55:13.744Z,85.53
2023-05-07T03:58:25.024Z,85.86
2023-05-07T04:01:30.424Z,85.33
2023-05-07T04:04:34.521Z,86.37
2023-05-07T04:07:38.604Z,85.67
2023-05-07T04:10:42.163Z,85.77
2023-05-07T04:13:49.349Z,85.23
2023-05-07T04:16:57.156Z,85.64
2023-05-07T04:20:01.163Z,84.73
2023-05-07T04:23:06.144Z,84.74
2023-05-07T04:26:11.657Z,84.70
2023-05-07T04:29:20.004Z,84.36
2023-05-07T04:32:23.946Z,84.32
2023-05-07T04:35:29.679Z,84.42
2023-05-07T04:38:33.680Z,84.44
2023-05-07T04:41:39.367Z,84.17
2023-05-07T04:44:46.524Z,84.80
2023-05-07T04:47:49.996Z,84.04
2023-05-07T04:50:56.059Z,84.38
2023-05-07T04:54:00.675Z,84.38
2023-05-07T04:57:07.149Z,84.56
2023-05-07T05:00:16.335Z,84.23
2023-05-07T05:03:22.255Z,84.43
2023-05-07T05:06:28.794Z,84.49
2023-05-07T05:09:32.359Z,84.08
2023-05-07T05:12:36.081Z,84.69
2023-05-07T05:15:41.358Z,84.54
2023-05-07T05:18:44.983Z,84.76
2023-05-07T05:21:51.015Z,84.92
2023-05-07T05:24:54.607Z,84.79
2023-05-07T05:27:59.145Z,84.98
2023-05-07T05:31:07.376Z,84.46
2023-05-07T05:34:13.595Z,84.40
2023-05-07T05:37:19.162Z,83.81
2023-05-07T05:40:23.024Z,83.76
2023-05-07T05:43:27.525Z,83.55
2023-05-07T05:46:39.078Z,83.63
2023-05-07T05:49:44.589Z,84.08
2023-05-07T05:52:51.934Z,83.64
2023-05-07T05:55:57.325Z,82.68
2023-05-07T05:59:02.108Z,82.64
2023-05-07T06:02:09.068Z,82.65
2023-05-07T06:05:14.224Z,83.36
2023-05-07T06:08:18.415Z,83.11
2023-05-07T06:11:22.661Z,82.66
2023-05-07T06:14:27.299Z,82.85
2023-05-07T06:17:34.120Z,82.83
2023-05-07T06:20:38.139Z,82.45
2023-05-07T06:23:47.562Z,83.25
2023-05-07T06:26:51.714Z,83.34
2023-05-07T06:29:55.793Z,83.36
2023-05-07T06:33:01.737Z,83.38
2023-05-07T06:36:06.330Z,83.57
2023-05-07T06:39:13.319Z,83.54
2023-05-07T06:42:17.502Z,84.11
2023-05-07T06:45:25.007Z,82.92
2023-05-07T06:48:32.169Z,83.56
2023-05-07T06:51:41.301Z,83.27
2023-05-07T06:54:44.935Z,82.45
2023-05-07T06:57:51.833Z,81.97
2023-05-07T07:00:57.196Z,81.58
2023-05-07T07:04:02.809Z,81.65
2023-05-07T07:07:07.586Z,80.01
2023-05-07T07:10:12.841Z,79.45
2023-05-07T07:13:17.268Z,79.66
2023-05-07T07:16:20.939Z,80.28
2023-05-07T07:19:28.578Z,80.00
2023-05-07T07:22:33.528Z,80.94
2023-05-07T07:25:37.802Z,81.22
2023-05-07T07:28:46.154Z,81.39
2023-05-07T07:31:55.566Z,81.47
2023-05-07T07:35:00.947Z,81.78
2023-05-07T07:38:05.196Z,82.15
2023-05-07T07:41:13.523Z,82.65
2023-05-07T07:44:19.603Z,82.15
2023-05-07T07:47:28.377Z,82.75
2023-05-07T07:50:43.461Z,82.31
2023-05-07T07:53:50.097Z,82.08
2023-05-07T07:56:55.294Z,82.29
2023-05-07T07:59:59.671Z,81.86
2023-05-07T08:03:04.545Z,82.04
2023-05-07T08:06:15.243Z,82.20
2023-05-07T08:09:19.636Z,81.77
2023-05-07T08:12:24.265Z,81.35
2023-05-07T08:15:27.834Z,81.21
2023-05-07T08:18:34.683Z,81.23
2023-05-07T08:21:42.788Z,80.90
2023-05-07T08:24:56.980Z,81.23
2023-05-07T08:28:10.528Z,81.13
2023-05-07T08:31:15.965Z,80.25
2023-05-07T08:34:22.196Z,79.79
2023-05-07T08:37:29.057Z,79.52
2023-05-07T08:40:39.409Z,79.72
2023-05-07T08:43:49.635Z,79.77
2023-05-07T08:46:56.253Z,78.86
2023-05-07T08:50:01.263Z,78.98
2023-05-07T08:53:07.621Z,78.95
2023-05-07T08:56:12.556Z,78.67
2023-05-07T08:59:16.937Z,78.68
2023-05-07T09:02:22.076Z,78.22
2023-05-07T09:05:25.987Z,78.81
2023-05-07T09:08:31.834Z,77.59
2023-05-07T09:11:38.578Z,77.78
2023-05-07T09:14:42.209Z,77.84
2023-05-07T09:17:46.195Z,77.78
2023-05-07T09:20:50.670Z,78.79
2023-05-07T09:23:58.362Z,78.77
2023-05-07T09:27:14.509Z,78.04
2023-05-07T09:30:20.813Z,77.33
2023-05-07T09:33:30.018Z,77.09
2023-05-07T09:36:35.213Z,76.86
2023-05-07T09:39:45.570Z,77.70
2023-05-07T09:42:51.724Z,77.14
2023-05-07T09:45:56.998Z,76.43
2023-05-07T09:49:04.700Z,77.28
2023-05-07T09:52:12.380Z,78.03
2023-05-07T09:55:23.387Z,77.73
2023-05-07T09:58:28.561Z,77.01
2023-05-07T10:01:35.250Z,77.40
2023-05-07T10:04:39.930Z,76.82
2023-05-07T10:07:43.836Z,77.13
2023-05-07T10:10:49.460Z,77.71
2023-05-07T10:13:57.130Z,77.55
2023-05-07T10:17:02.639Z,77.79
2023-05-07T10:20:08.448Z,77.61
2023-05-07T10:23:17.048Z,77.11
2023-05-07T10:26:27.754Z,77.03
2023-05-07T10:29:40.080Z,75.49
2023-05-07T10:32:48.220Z,74.52
2023-05-07T10:36:02.578Z,74.61
2023-05-07T10:39:09.219Z,73.78
2023-05-07T10:42:16.948Z,74.17
2023-05-07T10:45:27.194Z,73.56
2023-05-07T10:48:33.604Z,74.09
2023-05-07T10:51:46.916Z,74.29
2023-05-07T10:55:26.844Z,74.94
2023-05-07T10:58:56.954Z,74.96
2023-05-07T11:02:08.950Z,74.02
2023-05-07T11:05:22.171Z,74.94
2023-05-07T11:08:58.833Z,74.21
2023-05-07T11:12:09.515Z,75.17
2023-05-07T11:15:43.178Z,75.56
2023-05-07T11:18:57.885Z,75.41
2023-05-07T11:22:41.080Z,75.11
2023-05-07T11:26:01.986Z,75.45
2023-05-07T11:29:13.325Z,75.31
2023-05-07T11:32:25.104Z,73.76
2023-05-07T11:35:31.059Z,73.39
2023-05-07T11:38:38.247Z,73.80
2023-05-07T11:41:44.040Z,73.59
2023-05-07T11:44:49.301Z,73.06
2023-05-07T11:47:54.501Z,71.70
2023-05-07T11:51:03.811Z,73.44
2023-05-07T11:54:09.781Z,73.45
2023-05-07T11:57:17.476Z,74.41
2023-05-07T12:00:21.319Z,75.37
2023-05-07T12:03:26.972Z,73.98
2023-05-07T12:06:32.091Z,73.10
2023-05-07T12:09:35.979Z,73.59
2023-05-07T12:12:43.340Z,72.33
2023-05-07T12:15:46.846Z,72.54
2023-05-07T12:18:53.765Z,72.26
2023-05-07T12:22:02.015Z,70.88
2023-05-07T12:25:08.036Z,70.98
2023-05-07T12:28:15.731Z,71.20
2023-05-07T12:31:19.448Z,69.93
2023-05-07T12:34:25.171Z,69.83
2023-05-07T12:37:31.138Z,69.84
2023-05-07T12:40:40.194Z,68.99
2023-05-07T12:43:46.663Z,68.20
2023-05-07T12:46:50.139Z,67.50
2023-05-07T12:49:56.926Z,65.49
2023-05-07T12:53:00.396Z,64.95
2023-05-07T12:56:03.971Z,63.76
2023-05-07T12:59:07.438Z,64.79
2023-05-07T13:02:11.481Z,67.85
2023-05-07T13:05:18.393Z,66.47
2023-05-07T13:08:30.019Z,69.10
2023-05-07T13:11:33.737Z,68.83
2023-05-07T13:14:37.189Z,67.51
2023-05-07T13:17:40.787Z,69.17
2023-05-07T13:20:46.127Z,69.79
2023-05-07T13:23:49.547Z,68.91
2023-05-07T13:26:55.897Z,70.39
2023-05-07T13:29:59.328Z,67.85
2023-05-07T13:33:03.583Z,68.11
2023-05-07T13:36:09.138Z,70.13
2023-05-07T13:39:13.561Z,69.67
2023-05-07T13:42:17.201Z,70.00
2023-05-07T13:45:21.049Z,69.06
2023-05-07T13:48:24.746Z,67.64
2023-05-07T13:51:29.778Z,68.54
2023-05-07T13:54:33.188Z,68.09
2023-05-07T13:57:36.770Z,67.03
2023-05-07T14:00:40.555Z,68.08
2023-05-07T14:03:44.753Z,66.03
2023-05-07T14:06:49.686Z,66.57
2023-05-07T14:09:53.507Z,64.46
2023-05-07T14:12:57.080Z,66.25
2023-05-07T14:16:00.810Z,68.47
2023-05-07T14:19:04.551Z,68.01
2023-05-07T14:22:09.400Z,68.82
2023-05-07T14:25:14.065Z,69.12
2023-05-07T14:28:18.954Z,69.47
2023-05-07T14:31:22.881Z,68.56
2023-05-07T14:34:26.598Z,69.25
2023-05-07T14:37:31.549Z,68.15
2023-05-07T14:40:34.942Z,69.36
2023-05-07T14:43:38.753Z,69.20
2023-05-07T14:46:43.217Z,69.92
2023-05-07T14:49:46.789Z,69.75
2023-05-07T14:52:54.357Z,70.12
2023-05-07T14:55:57.852Z,69.98
2023-05-07T14:59:01.626Z,69.27
2023-05-07T15:02:07.335Z,68.89
2023-05-07T15:05:13.851Z,68.39
2023-05-07T15:08:19.041Z,69.41
2023-05-07T15:11:23.132Z,69.21
2023-05-07T15:14:26.623Z,69.21
2023-05-07T15:17:30.342Z,67.56
2023-05-07T15:20:34.504Z,68.55
2023-05-07T15:23:39.393Z,68.13
2023-05-07T15:26:43.117Z,68.14
2023-05-07T15:29:47.064Z,66.62
2023-05-07T15:32:51.187Z,67.38
2023-05-07T15:35:59.854Z,68.13
2023-05-07T15:39:06.025Z,67.20
2023-05-07T15:42:09.543Z,68.56
2023-05-07T15:45:14.216Z,68.89
2023-05-07T15:48:17.896Z,68.54
2023-05-07T15:51:22.859Z,68.93
2023-05-07T15:54:27.986Z,68.68
2023-05-07T15:57:32.797Z,67.83
2023-05-07T16:00:36.642Z,67.99
2023-05-07T16:03:41.332Z,67.96
2023-05-07T16:06:47.601Z,68.16
2023-05-07T16:09:52.608Z,69.50
2023-05-07T16:12:56.291Z,68.97
2023-05-07T16:16:01.102Z,69.04
2023-05-07T16:19:04.954Z,67.44
2023-05-07T16:22:08.453Z,68.57
2023-05-07T16:25:17.001Z,68.49
2023-05-07T16:28:21.517Z,67.94
2023-05-07T16:31:26.029Z,68.41
2023-05-07T16:34:31.658Z,67.79
2023-05-07T16:37:35.907Z,67.83
2023-05-07T16:40:41.668Z,68.67
2023-05-07T16:43:45.122Z,67.99
2023-05-07T16:46:49.184Z,68.51
2023-05-07T16:49:53.096Z,67.46
2023-05-07T16:52:56.696Z,68.10
2023-05-07T16:56:06.247Z,68.21
2023-05-07T16:59:10.383Z,68.72
2023-05-07T17:02:13.827Z,67.88
2023-05-07T17:05:17.826Z,68.41
2023-05-07T17:08:21.663Z,68.13
2023-05-07T17:11:31.161Z,66.99
2023-05-07T17:14:35.145Z,67.49
2023-05-07T17:17:39.187Z,68.31
2023-05-07T17:20:42.824Z,68.57
2023-05-07T17:24:05.736Z,68.16
2023-05-07T17:27:11.565Z,68.33
2023-05-07T17:30:16.512Z,69.42
2023-05-07T17:33:22.139Z,68.20
2023-05-07T17:36:26.210Z,69.24
2023-05-07T17:39:29.840Z,68.74
2023-05-07T17:42:35.439Z,68.93
2023-05-07T17:45:38.948Z,68.63
2023-05-07T17:48:42.696Z,69.44
2023-05-07T17:51:54.037Z,70.22
2023-05-07T17:54:59.034Z,70.38
2023-05-07T17:58:04.406Z,69.95
2023-05-07T18:01:07.976Z,70.43
2023-05-07T18:04:11.803Z,69.93
2023-05-07T18:07:15.213Z,69.81
2023-05-07T18:10:19.138Z,69.98
2023-05-07T18:13:24.437Z,70.42
2023-05-07T18:16:28.278Z,70.81
2023-05-07T18:19:31.884Z,69.91
2023-05-07T18:22:36.183Z,70.49
2023-05-07T18:25:39.806Z,70.20
2023-05-07T18:28:45.836Z,70.77
2023-05-07T18:31:49.454Z,70.79
2023-05-07T18:34:52.828Z,71.24
2023-05-07T18:37:56.344Z,71.38
2023-05-07T18:41:02.724Z,71.11
2023-05-07T18:44:07.798Z,71.05
2023-05-07T18:47:11.293Z,71.41
2023-05-07T18:50:16.562Z,70.64
2023-05-07T18:53:20.172Z,71.01
2023-05-07T18:56:24.002Z,70.25
2023-05-07T18:59:28.851Z,71.14
2023-05-07T19:02:32.574Z,71.74
2023-05-07T19:05:36.082Z,71.10
2023-05-07T19:08:48.297Z,70.52
2023-05-07T19:11:53.697Z,70.68
2023-05-07T19:14:58.962Z,71.71
2023-05-07T19:18:06.963Z,70.64
2023-05-07T19:21:10.741Z,69.96
2023-05-07T19:24:14.632Z,70.17
2023-05-07T19:27:18.424Z,70.61
2023-05-07T19:30:23.549Z,69.92
2023-05-07T19:33:29.479Z,70.09
2023-05-07T19:36:34.596Z,70.48
2023-05-07T19:39:38.350Z,70.28
2023-05-07T19:42:41.798Z,70.06
2023-05-07T19:45:48.170Z,70.14
2023-05-07T19:48:52.639Z,69.92
2023-05-07T19:51:56.246Z,70.33
2023-05-07T19:54:59.971Z,69.54
2023-05-07T19:58:03.607Z,70.19
2023-05-07T20:01:08.546Z,69.96
2023-05-07T20:04:12.300Z,70.41
2023-05-07T20:07:15.803Z,70.96
2023-05-07T20:10:19.386Z,70.75
2023-05-07T20:13:22.824Z,70.21
2023-05-07T20:16:27.955Z,70.32
2023-05-07T20:19:31.503Z,71.06
2023-05-07T20:22:35.052Z,70.73
2023-05-07T20:25:38.800Z,70.58
2023-05-07T20:28:42.332Z,72.11
2023-05-07T20:31:47.549Z,71.51
2023-05-07T20:34:51.139Z,71.27
2023-05-07T20:37:54.636Z,72.05
2023-05-07T20:40:58.221Z,72.45
2023-05-07T20:44:02.271Z,72.19
2023-05-07T20:47:07.293Z,73.06
2023-05-07T20:50:11.491Z,73.47
2023-05-07T20:53:15.144Z,73.67
2023-05-07T20:56:18.662Z,74.35
2023-05-07T20:59:22.145Z,74.85
2023-05-07T21:02:53.325Z,75.13
2023-05-07T21:06:17.404Z,74.91
2023-05-07T21:09:30.254Z,74.76
2023-05-07T21:12:33.894Z,75.41
2023-05-07T21:15:37.335Z,75.52
2023-05-07T21:18:42.098Z,75.50
2023-05-07T21:21:45.442Z,76.04
2023-05-07T21:24:49.058Z,76.01
2023-05-07T21:27:53.403Z,76.62
2023-05-07T21:30:57.010Z,76.56
2023-05-07T21:34:01.886Z,76.75
2023-05-07T21:37:05.653Z,77.25
2023-05-07T21:40:10.280Z,76.62
2023-05-07T21:43:13.837Z,77.28
2023-05-07T21:46:17.818Z,77.21
2023-05-07T21:49:22.689Z,77.81
2023-05-07T21:52:26.865Z,77.49
2023-05-07T21:55:30.331Z,77.17
2023-05-07T21:58:33.723Z,77.99
2023-05-07T22:01:37.544Z,77.82
2023-05-07T22:04:43.516Z,77.82
2023-05-07T22:07:46.970Z,78.23
2023-05-07T22:10:50.468Z,78.29
2023-05-07T22:13:55.443Z,78.23
2023-05-07T22:16:59.041Z,78.43
2023-05-07T22:20:03.921Z,78.30
2023-05-07T22:23:07.442Z,77.55
2023-05-07T22:26:14.656Z,78.40
2023-05-07T22:29:18.174Z,78.46
2023-05-07T22:32:21.749Z,77.96
2023-05-07T22:35:26.975Z,78.33
2023-05-07T22:38:30.429Z,78.35
2023-05-07T22:41:34.086Z,77.90
2023-05-07T22:44:37.842Z,78.17
2023-05-07T22:47:41.340Z,77.57
2023-05-07T22:50:46.436Z,77.88
2023-05-07T22:53:49.822Z,77.92
2023-05-07T22:56:53.824Z,78.21
2023-05-07T22:59:57.858Z,79.07
2023-05-07T23:03:01.555Z,79.01
2023-05-07T23:06:06.865Z,78.91
2023-05-07T23:09:10.785Z,79.29
2023-05-07T23:12:14.100Z,80.24
2023-05-07T23:15:17.941Z,79.16
2023-05-07T23:18:21.310Z,78.22
2023-05-07T23:21:26.475Z,79.29
2023-05-07T23:24:29.784Z,79.32
2023-05-07T23:27:33.209Z,79.67
2023-05-07T23:30:36.787Z,80.38
2023-05-07T23:33:40.681Z,81.44
2023-05-07T23:36:45.803Z,81.85
2023-05-07T23:39:54.606Z,81.96
2023-05-07T23:42:58.255Z,82.17
2023-05-07T23:46:02.678Z,82.10
2023-05-07T23:49:06.241Z,82.53
2023-05-07T23:52:11.166Z,82.89
2023-05-07T23:55:16.786Z,82.22
2023-05-07T23:58:20.430Z,82.63
